Time;durP1;ratioP1;P1;durP2;ratioP2;P2;SDS_P1;SDS_P2;PMS_P1;PMS_P2;Temp;Humidity;BMP_temperature;BMP_pressure;BME280_temperature;BME280_humidity;BME280_pressure;Samples;Min_cycle;Max_cycle;Signal;HPM_P1;HPM_P2
2021/11/13 00:00:26;;;;;;;41.47;25.80;;;3.90;97.30;;;2.26;100.00;97994.84;5082474;28;20795;-73
2021/11/13 00:02:54;;;;;;;40.40;25.23;;;3.80;97.10;;;2.48;99.66;97988.06;5067656;28;20458;-73
2021/11/13 00:05:21;;;;;;;39.87;24.03;;;3.90;97.20;;;2.42;99.60;97978.06;5055943;28;20491;-73
2021/11/13 00:07:50;;;;;;;37.43;24.50;;;3.90;96.60;;;2.18;100.00;97978.84;5053237;28;20493;-72
2021/11/13 00:10:25;;;;;;;41.83;26.00;;;3.80;96.60;;;2.28;99.97;97978.72;5048446;28;20541;-73
2021/11/13 00:12:53;;;;;;;39.27;21.73;;;3.80;98.20;;;2.25;100.00;97983.38;5045713;28;20556;-71
2021/11/13 00:15:21;;;;;;;40.57;23.50;;;3.70;98.40;;;2.21;100.00;97982.03;5044689;28;21401;-71
2021/11/13 00:17:48;;;;;;;37.33;21.47;;;3.80;98.10;;;2.28;100.00;97982.22;5065486;28;20781;-71
2021/11/13 00:20:16;;;;;;;34.60;20.67;;;3.80;98.60;;;2.10;100.00;97980.47;5068822;28;20486;-74
2021/11/13 00:22:43;;;;;;;34.60;21.93;;;3.70;98.40;;;2.12;100.00;97983.00;5073742;28;20854;-72
2021/11/13 00:25:12;;;;;;;36.30;21.83;;;3.70;98.60;;;2.01;100.00;97975.28;5053838;28;20960;-73
2021/11/13 00:27:40;;;;;;;37.43;23.13;;;3.60;98.30;;;2.19;100.00;97981.34;5074286;28;20468;-73
2021/11/13 00:30:09;;;;;;;33.73;21.90;;;3.70;99.90;;;2.10;100.00;97971.66;5070507;28;20449;-72
2021/11/13 00:32:36;;;;;;;30.80;19.10;;;3.70;97.70;;;2.20;99.76;97961.72;5075282;28;20543;-73
2021/11/13 00:35:04;;;;;;;30.43;21.07;;;3.80;98.00;;;2.36;98.98;97989.41;5070105;28;20551;-74
2021/11/13 00:37:31;;;;;;;30.13;19.37;;;3.80;96.40;;;2.36;99.46;97994.75;5067773;28;20452;-72
2021/11/13 00:39:58;;;;;;;31.93;21.53;;;3.80;95.90;;;2.35;98.71;97990.38;5068427;28;20457;-77
2021/11/13 00:42:26;;;;;;;32.43;19.23;;;3.80;95.50;;;2.41;98.87;97987.88;5065352;28;20461;-72
2021/11/13 00:44:53;;;;;;;28.50;18.57;;;3.90;95.70;;;2.36;99.22;97989.41;5070983;28;20492;-74
2021/11/13 00:47:21;;;;;;;30.33;18.97;;;3.90;95.70;;;2.25;98.84;97978.03;5077261;28;20472;-72
2021/11/13 00:49:48;;;;;;;29.70;19.67;;;3.90;95.50;;;2.21;99.37;97979.38;5075254;28;20461;-71
2021/11/13 00:52:15;;;;;;;24.53;17.30;;;3.80;95.50;;;2.25;99.02;97983.38;5059125;28;20536;-71
2021/11/13 00:54:42;;;;;;;25.10;17.03;;;3.80;95.30;;;2.31;98.98;97967.72;5072124;28;21093;-72
2021/11/13 00:57:09;;;;;;;23.10;14.63;;;3.80;96.10;;;2.34;99.17;97978.03;5070565;28;21210;-72
2021/11/13 00:59:40;;;;;;;28.10;18.67;;;3.80;95.90;;;2.25;99.45;97963.84;5074828;28;20458;-72
2021/11/13 01:02:07;;;;;;;23.70;16.67;;;3.80;96.20;;;2.36;98.93;97973.41;5068842;28;21042;-74
2021/11/13 01:04:35;;;;;;;23.07;16.40;;;3.90;96.10;;;2.33;98.75;97973.72;5065916;28;20484;-72
2021/11/13 01:07:03;;;;;;;23.73;15.30;;;3.90;95.10;;;2.45;98.35;97984.91;5068249;28;20904;-72
2021/11/13 01:09:30;;;;;;;22.23;16.03;;;3.90;96.00;;;2.21;99.17;97986.53;5070089;28;20472;-72
2021/11/13 01:11:58;;;;;;;25.47;17.87;;;3.80;95.30;;;2.16;100.00;97989.66;5066837;28;20530;-74
2021/11/13 01:14:26;;;;;;;29.13;16.83;;;3.70;97.80;;;2.32;99.86;97988.88;5069168;28;20453;-73
2021/11/13 01:16:55;;;;;;;27.13;18.60;;;3.80;98.40;;;2.15;99.75;97993.34;5073569;28;20489;-72
2021/11/13 01:19:23;;;;;;;26.20;17.50;;;3.80;96.20;;;2.32;99.39;97998.69;5048565;28;20464;-69
2021/11/13 01:21:50;;;;;;;27.67;18.47;;;3.80;97.10;;;2.35;98.73;97990.38;5067452;28;20469;-72
2021/11/13 01:24:17;;;;;;;20.93;16.53;;;3.80;95.20;;;2.46;98.31;97995.41;5070566;28;20477;-72
2021/11/13 01:26:44;;;;;;;24.13;17.33;;;3.90;94.50;;;2.40;98.10;97998.75;5068429;28;20525;-73
2021/11/13 01:29:11;;;;;;;28.77;18.80;;;3.90;94.00;;;2.32;98.19;97985.38;5074235;28;20561;-73
2021/11/13 01:31:38;;;;;;;28.30;18.20;;;3.90;94.20;;;2.24;98.37;97995.03;5073458;28;20583;-72
2021/11/13 01:34:06;;;;;;;23.57;17.87;;;3.80;94.50;;;2.22;98.54;97986.38;5073405;28;20952;-72
2021/11/13 01:36:34;;;;;;;24.07;17.93;;;3.80;94.70;;;2.21;98.50;97987.38;5067066;28;20498;-72
2021/11/13 01:39:01;;;;;;;26.10;18.43;;;3.80;94.00;;;2.06;99.18;97978.31;5074451;28;20445;-72
2021/11/13 01:41:28;;;;;;;26.27;18.70;;;3.70;94.50;;;2.07;99.85;97982.66;5074046;28;20461;-71
2021/11/13 01:43:55;;;;;;;27.37;18.33;;;3.60;97.10;;;2.00;99.57;97973.63;5055661;28;20492;-71
2021/11/13 01:46:22;;;;;;;30.00;19.73;;;3.60;96.00;;;2.10;99.63;97985.81;5047975;28;20572;-72
2021/11/13 01:48:50;;;;;;;24.20;17.20;;;3.60;96.50;;;2.10;99.43;97980.47;5069255;28;20472;-73
2021/11/13 01:51:24;;;;;;;26.57;18.63;;;3.70;96.00;;;2.21;98.92;97979.38;5054167;28;20450;-72
2021/11/13 01:53:54;;;;;;;28.70;19.20;;;3.70;96.00;;;2.16;98.74;97972.84;5073194;28;20461;-72
2021/11/13 01:56:22;;;;;;;25.20;17.73;;;3.70;95.30;;;2.15;99.02;97977.34;5053588;28;20445;-72
2021/11/13 01:58:52;;;;;;;26.10;18.73;;;3.70;95.20;;;2.12;98.88;97965.19;5070893;28;20514;-73
2021/11/13 02:01:21;;;;;;;25.53;18.30;;;3.70;95.00;;;2.20;98.64;97964.38;5057529;28;20536;-72
2021/11/13 02:03:49;;;;;;;25.70;18.90;;;3.70;95.30;;;2.19;98.75;97967.19;5071237;28;20547;-72
2021/11/13 02:06:18;;;;;;;23.80;17.83;;;3.70;94.40;;;2.11;99.33;97962.69;5073337;28;20503;-72
2021/11/13 02:08:48;;;;;;;23.93;17.73;;;3.70;95.70;;;2.05;99.37;97964.16;5051414;28;20576;-73
2021/11/13 02:11:18;;;;;;;26.10;17.90;;;3.70;95.50;;;2.17;99.78;97979.84;5048480;28;20451;-72
2021/11/13 02:13:46;;;;;;;23.37;17.73;;;3.70;96.70;;;2.17;98.93;97970.00;5047319;28;20479;-72
2021/11/13 02:16:13;;;;;;;26.70;18.30;;;3.70;95.90;;;2.35;97.86;97966.38;5071698;28;20502;-72
2021/11/13 02:18:41;;;;;;;26.90;17.47;;;3.80;95.40;;;2.33;97.82;97963.03;5053271;28;20494;-73
2021/11/13 02:21:11;;;;;;;22.77;16.60;;;3.80;93.90;;;2.37;97.52;97975.06;5050671;28;20507;-72
2021/11/13 02:23:39;;;;;;;22.83;17.07;;;3.90;93.20;;;2.43;97.10;97970.88;5067663;28;20465;-71
2021/11/13 02:26:08;;;;;;;22.70;16.40;;;3.90;93.40;;;2.38;97.37;97972.22;5068911;28;20461;-71
2021/11/13 02:28:36;;;;;;;23.33;16.30;;;3.90;93.50;;;2.32;97.18;97977.38;5051674;28;20528;-70
2021/11/13 02:31:06;;;;;;;22.23;16.97;;;3.90;93.10;;;2.27;97.36;97975.19;5050193;28;20796;-71
2021/11/13 02:33:34;;;;;;;19.13;15.53;;;3.80;93.00;;;2.33;97.10;97974.56;5074343;28;20868;-71
2021/11/13 02:36:02;;;;;;;23.13;16.70;;;3.90;92.80;;;2.38;97.29;97974.06;5069992;28;20540;-72
2021/11/13 02:38:33;;;;;;;22.57;16.63;;;3.90;93.40;;;2.35;97.16;97977.88;5068099;28;20686;-72
2021/11/13 02:41:03;;;;;;;28.53;17.97;;;3.90;93.00;;;2.44;96.82;97980.59;5051088;28;20453;-71
2021/11/13 02:43:32;;;;;;;20.50;15.83;;;3.90;93.30;;;2.22;97.39;97988.19;5066268;28;21299;-73
2021/11/13 02:46:03;;;;;;;23.20;16.87;;;3.80;93.40;;;2.23;97.07;97980.03;5068461;28;20495;-72
2021/11/13 02:48:33;;;;;;;22.97;15.07;;;3.80;93.20;;;2.16;97.94;97980.84;5069483;28;20518;-72
2021/11/13 02:51:00;;;;;;;21.13;14.90;;;3.70;93.60;;;2.24;97.38;97986.19;5067048;28;20456;-72
2021/11/13 02:53:30;;;;;;;19.87;15.00;;;3.70;93.50;;;2.32;95.75;97985.38;5066488;28;20488;-74
2021/11/13 02:56:01;;;;;;;23.50;16.87;;;3.80;91.90;;;2.40;95.51;97985.41;5065845;28;20453;-74
2021/11/13 02:58:29;;;;;;;20.53;15.50;;;3.80;91.70;;;2.38;95.31;97990.06;5068198;28;20457;-72
2021/11/13 03:01:00;;;;;;;21.47;15.73;;;3.80;91.50;;;2.20;95.63;97968.84;5066635;28;20469;-73
2021/11/13 03:03:27;;;;;;;23.30;15.80;;;3.80;91.70;;;2.18;96.11;97987.66;5054525;28;20446;-71
2021/11/13 03:05:56;;;;;;;24.20;17.10;;;3.80;91.60;;;2.09;96.28;97959.34;5052983;28;20552;-73
2021/11/13 03:08:27;;;;;;;22.07;15.57;;;3.80;92.00;;;2.32;96.20;97993.38;5066241;28;20477;-72
2021/11/13 03:10:58;;;;;;;20.87;15.67;;;3.80;91.90;;;2.30;95.85;97990.03;5078041;28;21017;-72
2021/11/13 03:13:26;;;;;;;22.73;16.37;;;3.80;91.50;;;2.32;95.14;97988.03;5047303;28;20510;-71
2021/11/13 03:15:54;;;;;;;21.03;15.40;;;3.80;91.10;;;2.20;94.94;97991.03;5070164;28;20520;-71
2021/11/13 03:18:22;;;;;;;22.33;15.30;;;3.80;90.60;;;2.28;95.08;97981.38;5067212;28;20445;-71
2021/11/13 03:20:49;;;;;;;19.70;14.83;;;3.80;90.90;;;2.21;95.22;97973.19;5066337;28;20868;-72
2021/11/13 03:23:18;;;;;;;24.93;14.93;;;3.80;91.10;;;2.22;95.46;97975.69;5071106;28;20452;-73
2021/11/13 03:25:50;;;;;;;19.50;15.23;;;3.80;91.30;;;2.37;95.21;97980.41;5049658;28;20898;-72
2021/11/13 03:28:22;;;;;;;20.13;14.97;;;3.80;91.40;;;2.24;94.90;97981.69;5067133;28;20477;-72
2021/11/13 03:30:50;;;;;;;22.17;16.10;;;3.80;90.60;;;2.25;94.52;97974.53;5069589;28;20560;-72
2021/11/13 03:33:17;;;;;;;20.20;15.63;;;3.80;90.30;;;2.22;94.83;97983.69;5071515;28;20457;-72
2021/11/13 03:35:44;;;;;;;16.70;13.33;;;3.80;90.30;;;2.19;94.17;97991.19;5048628;28;20458;-70
2021/11/13 03:38:14;;;;;;;18.20;14.13;;;3.80;89.50;;;2.21;94.23;97976.69;5070177;28;20521;-71
2021/11/13 03:40:44;;;;;;;17.87;13.03;;;3.80;90.20;;;2.27;94.44;97985.84;5068024;28;20512;-72
2021/11/13 03:43:14;;;;;;;19.20;14.00;;;3.80;90.80;;;2.19;93.63;97976.00;5051867;28;20964;-71
2021/11/13 03:45:47;;;;;;;17.53;14.00;;;3.80;89.40;;;2.30;93.32;97979.38;5066168;28;20502;-70
2021/11/13 03:48:14;;;;;;;17.70;12.53;;;3.80;88.50;;;2.25;93.33;97982.53;5070548;28;20599;-69
2021/11/13 03:50:41;;;;;;;17.00;13.40;;;3.80;88.60;;;2.22;92.91;97978.38;5052858;28;20449;-69
2021/11/13 03:53:09;;;;;;;17.10;12.10;;;3.80;88.00;;;2.21;93.04;97978.53;5050179;28;20465;-70
2021/11/13 03:55:37;;;;;;;16.27;12.47;;;3.70;89.20;;;2.31;92.52;97981.03;5065980;28;20457;-70
2021/11/13 03:58:05;;;;;;;16.90;11.87;;;3.80;87.70;;;2.31;92.50;97981.88;5068731;28;20489;-71
2021/11/13 04:00:33;;;;;;;21.33;13.90;;;3.80;88.10;;;2.18;92.89;97986.84;5068834;28;20499;-71
2021/11/13 04:03:01;;;;;;;16.43;12.20;;;3.80;88.60;;;2.25;92.81;97977.19;5067763;28;20556;-71
2021/11/13 04:05:28;;;;;;;13.23;11.23;;;3.70;89.20;;;2.24;92.35;97986.19;5071827;28;20537;-70
2021/11/13 04:07:55;;;;;;;16.10;12.63;;;3.70;88.20;;;2.17;92.63;97986.00;5053955;28;20461;-73
2021/11/13 04:10:23;;;;;;;18.03;14.00;;;3.70;88.50;;;2.06;93.72;97979.16;5071021;28;20488;-71
2021/11/13 04:12:50;;;;;;;13.33;11.57;;;3.60;89.50;;;2.17;93.11;97977.19;5079398;28;20922;-72
2021/11/13 04:15:18;;;;;;;15.30;12.00;;;3.70;88.90;;;2.11;93.39;97976.00;5054861;28;20483;-71
2021/11/13 04:17:48;;;;;;;16.10;11.67;;;3.60;89.00;;;2.04;93.47;97974.97;5067548;28;20492;-71
2021/11/13 04:20:18;;;;;;;16.90;12.90;;;3.60;88.90;;;1.93;94.14;97960.13;5065523;28;20543;-73
2021/11/13 04:22:47;;;;;;;16.47;12.03;;;3.50;89.60;;;2.08;93.87;97974.47;5057942;28;20457;-72
2021/11/13 04:25:14;;;;;;;14.70;11.50;;;3.60;90.00;;;2.15;93.64;97965.84;5058111;28;20457;-73
2021/11/13 04:27:42;;;;;;;13.33;10.20;;;3.60;90.20;;;2.04;93.31;97965.16;5056409;28;20480;-71
2021/11/13 04:30:12;;;;;;;16.77;10.93;;;3.60;89.80;;;2.14;92.81;97966.84;5066437;28;20492;-72
2021/11/13 04:32:39;;;;;;;15.17;11.27;;;3.70;88.70;;;1.97;93.34;97954.31;5051509;28;20474;-71
2021/11/13 04:35:20;;;;;;;16.10;11.33;;;3.60;87.90;;;1.91;93.28;97957.63;5069263;28;20453;-72
2021/11/13 04:37:53;;;;;;;15.53;10.37;;;3.50;88.30;;;1.88;93.37;97955.25;5049922;28;21023;-70
2021/11/13 04:40:22;;;;;;;14.73;10.93;;;3.50;88.10;;;1.87;93.32;97956.25;5067315;28;20473;-71
2021/11/13 04:42:50;;;;;;;14.80;10.50;;;3.50;88.20;;;1.72;93.88;97957.88;5050000;28;20493;-72
2021/11/13 04:45:17;;;;;;;14.30;10.47;;;3.40;89.00;;;1.90;93.79;97952.44;5071240;28;20512;-72
2021/11/13 04:47:44;;;;;;;13.20;11.23;;;3.40;90.10;;;1.83;94.09;97944.25;5055456;28;20974;-71
2021/11/13 04:50:16;;;;;;;13.73;11.40;;;3.40;90.00;;;1.90;93.68;97941.78;5067465;28;20501;-71
2021/11/13 04:52:43;;;;;;;16.33;11.37;;;3.40;89.60;;;1.80;93.56;97936.59;5078691;28;20967;-71
2021/11/13 04:55:13;;;;;;;12.50;10.03;;;3.40;89.10;;;1.86;94.21;97935.94;5046041;28;20532;-73
2021/11/13 04:57:40;;;;;;;13.70;10.73;;;3.40;90.00;;;1.95;93.71;97926.97;5069835;28;20480;-71
2021/11/13 05:00:13;;;;;;;15.00;10.90;;;3.40;90.10;;;1.94;93.65;97917.31;5063320;28;20548;-73
2021/11/13 05:02:40;;;;;;;14.37;10.93;;;3.50;89.90;;;1.83;93.89;97915.81;5049381;28;20915;-71
2021/11/13 05:05:08;;;;;;;13.60;10.23;;;3.40;89.80;;;1.75;94.84;97901.63;5076651;28;20461;-72
2021/11/13 05:07:35;;;;;;;15.00;11.40;;;3.30;90.60;;;1.69;94.75;97897.78;5053796;28;20844;-72
2021/11/13 05:10:04;;;;;;;13.40;10.03;;;3.30;90.50;;;1.78;94.73;97912.78;5050254;28;20465;-76
2021/11/13 05:12:32;;;;;;;15.17;10.67;;;3.30;90.90;;;1.71;94.88;97906.44;5056774;28;20461;-72
2021/11/13 05:14:59;;;;;;;12.33;10.93;;;3.30;90.60;;;1.74;94.73;97906.09;5058482;28;20964;-72
2021/11/13 05:17:26;;;;;;;14.13;11.47;;;3.30;90.70;;;1.71;94.30;97903.78;5056007;28;20492;-71
2021/11/13 05:19:53;;;;;;;13.60;10.63;;;3.30;90.60;;;1.87;94.45;97910.16;5051067;28;20890;-72
2021/11/13 05:22:20;;;;;;;12.47;10.90;;;3.40;90.80;;;1.90;94.67;97899.16;5051772;28;20560;-71
2021/11/13 05:24:47;;;;;;;17.80;10.87;;;3.40;90.70;;;1.67;95.08;97895.25;5069549;28;20537;-74
2021/11/13 05:27:14;;;;;;;16.07;11.43;;;3.30;90.80;;;1.81;95.33;97904.44;5050241;28;20456;-71
2021/11/13 05:29:42;;;;;;;15.23;10.90;;;3.30;91.20;;;1.67;95.83;97910.44;5085458;28;21360;-71
2021/11/13 05:32:10;;;;;;;12.50;10.43;;;3.30;91.10;;;1.80;95.20;97916.09;5048863;28;20547;-71
2021/11/13 05:34:37;;;;;;;12.60;8.97;;;3.30;91.20;;;1.67;96.00;97911.25;5071754;28;20458;-71
2021/11/13 05:37:04;;;;;;;14.13;11.57;;;3.20;91.60;;;1.85;95.36;97912.97;5056424;28;20861;-71
2021/11/13 05:39:31;;;;;;;15.43;11.93;;;3.30;91.60;;;1.72;95.73;97912.59;5056945;28;20524;-72
2021/11/13 05:41:58;;;;;;;13.10;10.60;;;3.30;91.50;;;1.63;96.31;97925.88;5080742;28;20460;-72
2021/11/13 05:44:25;;;;;;;16.70;11.87;;;3.20;91.90;;;1.58;96.86;97922.03;5056655;28;20495;-73
2021/11/13 05:46:54;;;;;;;15.20;11.67;;;3.20;92.40;;;1.59;96.58;97913.88;5056125;28;20477;-73
2021/11/13 05:49:22;;;;;;;15.50;11.70;;;3.20;92.30;;;1.63;96.29;97920.56;5072160;28;20472;-71
2021/11/13 05:51:49;;;;;;;13.27;10.57;;;3.20;92.00;;;1.51;96.70;97927.16;5078941;28;20469;-72
2021/11/13 05:54:17;;;;;;;13.23;11.10;;;3.10;92.30;;;1.56;97.20;97922.19;5073543;28;20468;-72
2021/11/13 05:56:52;;;;;;;15.00;10.87;;;3.10;92.50;;;1.70;96.63;97929.56;5055196;28;20476;-74
2021/11/13 05:59:19;;;;;;;12.50;10.23;;;3.20;92.50;;;1.68;96.06;97917.41;5053772;28;20536;-72
2021/11/13 06:01:46;;;;;;;13.40;11.13;;;3.20;91.90;;;1.66;95.87;97930.88;5071336;28;20487;-72
2021/11/13 06:04:14;;;;;;;13.47;11.23;;;3.30;91.60;;;1.74;95.53;97923.91;5072396;28;20473;-72
2021/11/13 06:06:41;;;;;;;14.07;11.20;;;3.30;91.50;;;1.63;95.66;97917.03;5048606;28;20493;-73
2021/11/13 06:09:08;;;;;;;12.87;10.33;;;3.30;91.40;;;1.84;95.16;97949.44;5051994;28;20530;-72
2021/11/13 06:11:35;;;;;;;12.97;10.40;;;3.40;91.00;;;1.90;95.07;97953.28;5072303;28;20546;-72
2021/11/13 06:14:02;;;;;;;13.17;10.03;;;3.40;91.20;;;1.96;94.79;97952.63;5073939;28;20518;-74
2021/11/13 06:16:50;;;;;;;13.07;10.97;;;3.50;90.80;;;1.94;95.21;97948.44;5063156;28;20552;-71
2021/11/13 06:19:20;;;;;;;14.13;11.20;;;3.40;91.00;;;1.82;95.22;97953.25;5062203;28;20558;-72
2021/11/13 06:21:47;;;;;;;14.17;11.30;;;3.40;91.00;;;1.79;95.33;97957.06;5068832;28;20553;-74
2021/11/13 06:24:14;;;;;;;17.23;12.00;;;3.40;90.90;;;1.93;94.65;97971.63;5072838;28;20591;-71
2021/11/13 06:26:41;;;;;;;13.50;10.77;;;3.40;90.90;;;1.88;94.74;97970.44;5070477;28;20556;-73
2021/11/13 06:29:08;;;;;;;15.20;11.80;;;3.40;90.60;;;1.91;94.23;97970.94;5064884;28;20912;-70
2021/11/13 06:31:35;;;;;;;15.50;11.27;;;3.50;90.60;;;1.84;94.84;97959.25;5073480;28;20453;-70
2021/11/13 06:34:02;;;;;;;13.10;10.97;;;3.40;90.70;;;1.94;94.79;97967.97;5071567;28;20500;-75
2021/11/13 06:36:31;;;;;;;16.63;11.50;;;3.50;90.90;;;1.97;94.23;97970.28;5063858;28;20526;-71
2021/11/13 06:38:58;;;;;;;12.47;10.13;;;3.50;90.60;;;1.91;94.43;97981.59;5063608;28;22085;-74
2021/11/13 06:41:29;;;;;;;13.03;10.13;;;3.50;90.70;;;1.93;94.43;97987.59;5056519;28;20492;-71
2021/11/13 06:43:56;;;;;;;14.10;10.67;;;3.50;90.50;;;2.04;94.31;97993.63;5055230;28;20484;-69
2021/11/13 06:46:23;;;;;;;11.63;10.20;;;3.50;90.50;;;2.38;92.62;97998.06;5045664;28;20516;-69
2021/11/13 06:48:51;;;;;;;16.57;10.90;;;3.70;90.00;;;2.38;92.39;97992.75;5064458;28;20449;-70
2021/11/13 06:51:18;;;;;;;12.97;10.23;;;3.80;88.70;;;2.33;92.57;98008.38;5049564;28;20556;-74
2021/11/13 06:53:47;;;;;;;13.90;11.17;;;3.80;87.80;;;2.29;91.70;98007.88;5057421;28;20488;-71
2021/11/13 06:56:14;;;;;;;11.60;10.20;;;3.90;86.30;;;2.38;91.40;98006.06;5066995;28;20461;-70
2021/11/13 06:58:41;;;;;;;12.67;10.03;;;3.80;86.50;;;2.34;91.90;98010.03;5065120;28;20462;-70
2021/11/13 07:01:08;;;;;;;12.57;10.07;;;3.90;87.00;;;2.45;91.87;98024.91;5051351;28;20535;-72
2021/11/13 07:03:35;;;;;;;11.03;9.10;;;3.90;87.60;;;2.21;92.89;98003.38;5041551;28;20462;-73
2021/11/13 07:06:02;;;;;;;14.43;10.17;;;3.80;87.60;;;2.09;92.78;97965.50;5068091;28;20556;-73
2021/11/13 07:08:29;;;;;;;13.13;9.87;;;3.80;88.50;;;2.37;92.25;97991.88;5047486;28;20441;-73
2021/11/13 07:10:58;;;;;;;12.50;9.60;;;3.80;87.90;;;2.39;92.07;97983.75;5048690;28;20568;-74
2021/11/13 07:13:26;;;;;;;12.20;10.20;;;3.80;88.40;;;2.36;91.64;97987.56;5046098;28;20452;-73
2021/11/13 07:15:54;;;;;;;12.23;10.60;;;3.90;86.20;;;2.25;91.50;97967.38;5054311;28;20540;-73
2021/11/13 07:18:21;;;;;;;11.70;9.80;;;3.90;86.10;;;2.13;92.91;97979.34;5072829;28;20453;-73
2021/11/13 07:20:53;;;;;;;11.47;10.23;;;3.70;87.00;;;2.11;92.78;97981.34;5072227;28;20445;-73
2021/11/13 07:23:20;;;;;;;13.47;10.10;;;3.70;86.80;;;2.26;92.27;97977.03;5047520;28;20464;-71
2021/11/13 07:25:48;;;;;;;10.70;9.33;;;3.70;87.60;;;2.19;92.12;97981.34;5053881;28;20457;-71
2021/11/13 07:28:19;;;;;;;11.33;9.00;;;3.80;86.70;;;2.25;91.51;97978.03;5066887;28;20545;-72
2021/11/13 07:30:48;;;;;;;12.60;8.70;;;3.80;86.70;;;2.54;91.67;97981.25;5037540;28;20470;-71
2021/11/13 07:33:16;;;;;;;10.50;9.20;;;3.90;86.70;;;2.36;91.26;97976.06;5068105;28;20534;-73
2021/11/13 07:35:44;;;;;;;9.30;8.30;;;3.90;85.00;;;2.29;91.57;97967.03;5066330;28;20461;-74
2021/11/13 07:38:12;;;;;;;10.73;8.70;;;3.80;86.30;;;2.33;91.04;97985.22;5067480;28;20499;-74
2021/11/13 07:40:40;;;;;;;10.60;8.60;;;3.90;85.50;;;2.40;91.21;97985.41;5051610;28;20819;-72
2021/11/13 07:43:07;;;;;;;11.43;9.70;;;3.90;85.90;;;2.21;91.48;97974.03;5052957;28;20461;-72
2021/11/13 07:45:35;;;;;;;14.00;10.60;;;3.80;85.60;;;2.33;91.70;97968.38;5068035;28;20534;-74
2021/11/13 07:48:04;;;;;;;10.27;8.90;;;3.90;86.10;;;2.46;91.85;97979.41;5073637;28;20568;-73
2021/11/13 07:50:35;;;;;;;14.00;10.70;;;3.90;87.10;;;2.78;90.77;97982.28;5071573;28;20481;-72
2021/11/13 07:53:02;;;;;;;11.03;9.63;;;4.10;86.40;;;2.81;89.93;97972.13;5049776;28;20449;-71
2021/11/13 07:55:29;;;;;;;12.57;10.00;;;4.30;85.60;;;2.64;90.04;97986.41;5051518;28;20774;-73
2021/11/13 07:57:56;;;;;;;11.13;9.47;;;4.20;83.50;;;2.59;90.93;97988.75;5051767;28;20458;-74
2021/11/13 08:00:26;;;;;;;11.80;10.00;;;4.10;84.70;;;2.74;91.02;97978.28;5073267;28;20496;-72
2021/11/13 08:02:55;;;;;;;11.73;9.30;;;4.20;85.80;;;2.66;90.53;97995.13;5070478;28;20859;-75
2021/11/13 08:05:23;;;;;;;14.50;11.13;;;4.20;84.90;;;2.64;90.36;97995.28;5063709;28;20473;-74
2021/11/13 08:07:51;;;;;;;14.83;11.00;;;4.20;84.10;;;2.84;89.69;98002.94;5074290;28;20455;-72
2021/11/13 08:10:19;;;;;;;18.00;10.67;;;4.30;84.30;;;3.03;90.20;98006.28;5029744;28;20468;-72
2021/11/13 08:12:47;;;;;;;14.37;11.47;;;4.40;85.00;;;2.98;89.42;97993.47;5065122;28;20452;-73
2021/11/13 08:15:17;;;;;;;11.20;9.30;;;4.40;83.60;;;2.77;89.38;97989.44;5068946;28;20465;-72
2021/11/13 08:17:44;;;;;;;14.00;9.70;;;4.40;82.90;;;3.26;89.55;97995.75;5053130;28;20457;-72
2021/11/13 08:20:15;;;;;;;11.20;9.00;;;4.60;84.80;;;3.26;87.84;97987.72;5061587;28;20515;-76
2021/11/13 08:22:43;;;;;;;11.77;9.33;;;4.70;82.50;;;3.32;87.20;98007.59;5070830;28;20461;-77
2021/11/13 08:25:13;;;;;;;11.33;9.20;;;4.80;81.50;;;3.25;87.37;97999.41;5066898;28;20469;-77
2021/11/13 08:27:43;;;;;;;10.40;8.33;;;4.70;81.50;;;3.22;86.06;97986.41;5048846;28;20468;-74
2021/11/13 08:30:11;;;;;;;12.63;9.23;;;4.90;80.30;;;3.35;87.30;97994.75;5042774;28;20479;-72
2021/11/13 08:32:39;;;;;;;11.03;9.17;;;4.80;81.00;;;3.48;86.00;97977.34;5046383;28;20880;-73
2021/11/13 08:35:10;;;;;;;11.13;9.17;;;4.90;80.50;;;3.44;86.82;97987.53;5073007;28;20453;-72
2021/11/13 08:37:39;;;;;;;9.97;8.63;;;4.80;81.00;;;3.39;86.13;97977.38;5042681;28;20897;-72
2021/11/13 08:40:09;;;;;;;12.33;9.37;;;5.00;80.30;;;3.11;87.76;97988.44;5060639;28;20464;-72
2021/11/13 08:42:37;;;;;;;11.97;9.73;;;4.80;80.40;;;3.45;86.50;97977.72;5070140;28;20971;-73
2021/11/13 08:45:07;;;;;;;11.67;9.00;;;4.90;81.10;;;3.34;87.28;97987.72;5044536;28;20473;-73
2021/11/13 08:47:35;;;;;;;12.47;9.40;;;4.80;80.80;;;3.68;86.99;97981.28;5068784;28;20465;-72
2021/11/13 08:50:04;;;;;;;13.03;9.80;;;5.00;81.60;;;3.40;86.07;97955.00;5053175;28;20520;-76
2021/11/13 08:52:31;;;;;;;13.47;9.77;;;5.00;80.30;;;3.52;87.27;97984.00;5070801;28;20493;-80
2021/11/13 08:55:00;;;;;;;11.33;8.67;;;5.00;80.80;;;3.61;87.25;97952.75;5071439;28;20522;-76
2021/11/13 08:57:28;;;;;;;11.10;9.13;;;5.10;81.90;;;3.66;85.93;97990.50;5068693;28;20488;-75
2021/11/13 08:59:57;;;;;;;10.27;8.70;;;5.10;80.10;;;3.56;86.02;97974.66;5050161;28;20446;-75
2021/11/13 09:02:26;;;;;;;10.53;8.80;;;5.20;80.00;;;3.60;86.15;97986.69;5044335;28;20469;-79
2021/11/13 09:04:56;;;;;;;10.70;8.30;;;5.10;80.00;;;3.71;86.92;97982.81;5061345;28;20468;-76
2021/11/13 09:07:25;;;;;;;13.30;8.47;;;5.10;81.00;;;3.73;86.43;97990.66;5048155;28;20462;-74
2021/11/13 09:09:52;;;;;;;11.77;9.43;;;5.10;80.20;;;3.53;86.96;97994.53;5065077;28;20516;-74
2021/11/13 09:12:25;;;;;;;10.93;8.63;;;5.00;80.80;;;3.84;85.77;98000.94;5062439;28;20473;-74
2021/11/13 09:14:56;;;;;;;10.03;8.87;;;5.20;80.60;;;3.76;86.49;98004.47;5067873;28;20446;-74
2021/11/13 09:17:23;;;;;;;10.80;9.17;;;5.20;80.00;;;4.00;85.24;98004.56;5062645;28;20465;-75
2021/11/13 09:19:54;;;;;;;11.83;9.43;;;5.40;79.80;;;3.99;85.85;98000.22;5044618;28;20464;-73
2021/11/13 09:22:21;;;;;;;11.83;9.47;;;5.40;79.70;;;4.24;84.29;98007.13;5050706;28;20452;-75
2021/11/13 09:24:49;;;;;;;10.80;9.40;;;5.60;79.60;;;4.12;85.06;98013.88;5069938;28;20537;-75
2021/11/13 09:27:16;;;;;;;11.37;9.07;;;5.60;79.40;;;4.19;84.74;98004.16;5069510;28;21014;-73
2021/11/13 09:29:45;;;;;;;11.83;9.30;;;5.60;79.10;;;4.22;84.21;97986.91;5063978;28;20560;-73
2021/11/13 09:32:12;;;;;;;11.80;10.20;;;5.70;79.00;;;4.52;84.33;98014.69;5064775;28;20457;-73
2021/11/13 09:34:40;;;;;;;12.87;9.90;;;5.80;79.10;;;4.73;83.10;98010.53;5057390;28;20993;-74
2021/11/13 09:37:07;;;;;;;9.77;8.77;;;5.90;78.80;;;4.41;83.43;97993.66;5061772;28;20518;-73
2021/11/13 09:39:35;;;;;;;10.13;9.03;;;5.90;77.90;;;4.49;83.98;98004.34;5051171;28;20516;-75
2021/11/13 09:42:03;;;;;;;9.80;8.80;;;5.90;78.50;;;4.66;82.37;97998.88;5050358;28;21101;-72
2021/11/13 09:44:32;;;;;;;10.60;8.70;;;6.10;77.80;;;4.74;83.01;98006.03;5045024;28;20544;-74
2021/11/13 09:47:03;;;;;;;10.67;8.47;;;6.10;77.90;;;4.90;82.76;97999.69;5047036;28;20495;-72
2021/11/13 09:49:31;;;;;;;9.60;8.60;;;6.30;77.70;;;4.72;82.50;98008.84;5047342;28;20458;-74
2021/11/13 09:52:00;;;;;;;10.70;9.40;;;6.20;76.90;;;4.87;82.27;98005.41;5049942;28;20848;-73
2021/11/13 09:54:28;;;;;;;12.00;8.87;;;6.10;77.50;;;4.62;83.70;97995.72;5054517;28;20445;-73
2021/11/13 09:56:56;;;;;;;11.17;8.93;;;6.10;77.40;;;4.29;84.96;97990.56;5047026;28;20507;-72
2021/11/13 09:59:24;;;;;;;10.07;8.20;;;5.90;78.10;;;4.15;84.75;97997.47;5065318;28;20448;-73
2021/11/13 10:01:52;;;;;;;10.10;8.50;;;5.70;78.00;;;4.08;85.29;97992.00;5071085;28;20464;-73
2021/11/13 10:04:21;;;;;;;11.03;9.40;;;5.60;78.60;;;4.24;85.15;97991.09;5049078;28;21037;-73
2021/11/13 10:06:49;;;;;;;13.17;9.70;;;5.60;79.40;;;4.37;83.85;97990.50;5065137;28;20537;-72
2021/11/13 10:09:17;;;;;;;9.30;8.30;;;5.70;78.80;;;4.12;85.86;97976.44;5046492;28;20518;-73
2021/11/13 10:11:49;;;;;;;12.10;9.43;;;5.70;78.80;;;4.68;83.82;97978.13;5055257;28;20480;-72
2021/11/13 10:14:18;;;;;;;10.60;9.00;;;6.00;78.70;;;4.49;84.38;97984.75;5039277;28;20537;-79
2021/11/13 10:16:49;;;;;;;12.10;10.17;;;5.90;78.60;;;4.21;84.67;97953.16;5069702;28;20531;-76
2021/11/13 10:19:21;;;;;;;12.43;11.13;;;5.80;79.10;;;4.56;84.16;97963.47;5066919;28;20501;-73
2021/11/13 10:21:58;;;;;;;12.30;10.70;;;6.10;79.20;;;4.75;82.79;97941.56;5061078;28;20465;-74
2021/11/13 10:24:29;;;;;;;11.47;10.00;;;6.30;78.30;;;4.48;83.18;97964.38;5038859;28;20810;-77